Time;durP1;ratioP1;P1;durP2;ratioP2;P2;SDS_P1;SDS_P2;PMS_P1;PMS_P2;Temp;Humidity;BMP_temperature;BMP_pressure;BME280_temperature;BME280_humidity;BME280_pressure;Samples;Min_cycle;Max_cycle;Signal;HPM_P1;HPM_P2
2022/05/11 00:00:45;;;;;;;17.20;5.17;;;;;;;11.92;48.60;100736.32;1681498;84;25944;-76
2022/05/11 00:03:12;;;;;;;10.78;5.85;;;;;;;11.90;48.88;100731.16;1667538;84;26613;-76
2022/05/11 00:05:39;;;;;;;12.07;5.17;;;;;;;11.88;48.89;100729.67;1681226;84;26204;-76
2022/05/11 00:08:05;;;;;;;10.78;5.22;;;;;;;11.86;49.07;100722.33;1692311;84;27459;-76
2022/05/11 00:10:32;;;;;;;10.98;5.85;;;;;;;11.83;49.09;100726.22;1695232;83;25896;-76
2022/05/11 00:12:58;;;;;;;9.70;5.05;;;;;;;11.83;49.19;100718.17;1659674;84;25882;-76
2022/05/11 00:15:26;;;;;;;6.95;4.87;;;;;;;11.82;49.39;100719.71;1660184;84;25921;-76
2022/05/11 00:17:52;;;;;;;9.15;5.28;;;;;;;11.79;49.61;100714.72;1669244;83;25923;-76
2022/05/11 00:20:20;;;;;;;11.68;5.53;;;;;;;11.78;49.66;100711.22;1679901;84;27600;-76
2022/05/11 00:22:46;;;;;;;10.95;4.92;;;;;;;11.81;49.55;100709.98;1664677;86;25871;-76
2022/05/11 00:25:15;;;;;;;10.20;5.28;;;;;;;11.82;49.66;100710.32;1658429;86;26500;-76
2022/05/11 00:27:41;;;;;;;7.83;4.92;;;;;;;11.82;49.96;100708.47;1665037;86;25923;-76
2022/05/11 00:30:09;;;;;;;11.97;6.22;;;;;;;11.82;49.87;100699.59;1656026;86;25828;-76
2022/05/11 00:32:36;;;;;;;10.60;5.45;;;;;;;11.81;50.30;100694.72;1679040;84;28254;-76
2022/05/11 00:35:05;;;;;;;15.03;5.97;;;;;;;11.80;50.38;100693.58;1680767;84;26625;-76
2022/05/11 00:37:31;;;;;;;12.70;5.03;;;;;;;11.78;50.47;100694.28;1682580;84;25738;-76
2022/05/11 00:39:58;;;;;;;10.05;5.28;;;;;;;11.78;50.53;100692.44;1683904;83;25789;-76
2022/05/11 00:42:24;;;;;;;9.25;5.42;;;;;;;11.78;50.65;100684.39;1689155;84;26524;-76
2022/05/11 00:44:53;;;;;;;7.75;5.53;;;;;;;11.79;50.91;100692.74;1682420;84;27477;-76
2022/05/11 00:47:28;;;;;;;10.50;4.58;;;;;;;11.80;51.12;100694.42;1680445;84;25743;-76
2022/05/11 00:50:05;;;;;;;9.50;5.33;;;;;;;11.81;51.06;100696.06;1692091;84;25872;-75
2022/05/11 00:52:51;;;;;;;11.05;5.17;;;;;;;11.84;51.17;100694.85;1677330;84;25861;-76
2022/05/11 00:55:34;;;;;;;9.85;4.53;;;;;;;11.85;51.65;100700.52;1676805;84;26029;-76
2022/05/11 00:58:14;;;;;;;7.92;4.35;;;;;;;11.82;51.72;100696.39;1672772;84;27518;-76
2022/05/11 01:00:44;;;;;;;18.93;6.27;;;;;;;11.80;52.00;100698.45;1679274;84;25814;-76
2022/05/11 01:03:18;;;;;;;11.35;5.15;;;;;;;11.78;51.96;100701.83;1668360;84;25939;-76
2022/05/11 01:05:46;;;;;;;10.90;5.30;;;;;;;11.75;51.96;100702.20;1680778;84;25861;-76
2022/05/11 01:08:14;;;;;;;10.05;5.28;;;;;;;11.72;51.73;100706.59;1682933;84;25815;-76
2022/05/11 01:10:42;;;;;;;12.85;5.10;;;;;;;11.71;51.73;100708.98;1678856;84;27646;-75
2022/05/11 01:13:13;;;;;;;10.00;5.20;;;;;;;11.70;52.06;100700.59;1692361;84;26128;-75
2022/05/11 01:15:40;;;;;;;;;;;;;;;11.66;51.85;100700.63;1689789;84;26086;-75
2022/05/11 01:18:09;;;;;;;12.03;4.72;;;;;;;11.60;52.37;100688.82;1614175;87;25871;-76
2022/05/11 01:20:37;;;;;;;11.83;5.33;;;;;;;11.52;52.54;100691.63;1659201;84;25909;-75
2022/05/11 01:23:47;;;;;;;13.40;4.62;;;;;;;11.50;52.57;100686.13;1661833;84;28518;-75
2022/05/11 01:26:18;;;;;;;13.40;6.20;;;;;;;11.49;52.85;100681.77;1678126;84;25833;-75
2022/05/11 01:28:54;;;;;;;9.20;5.78;;;;;;;11.49;52.93;100676.41;1675996;84;25809;-75
2022/05/11 01:31:18;;;;;;;10.68;5.78;;;;;;;11.49;53.11;100679.09;1687244;84;26655;-75
2022/05/11 01:33:49;;;;;;;12.75;5.85;;;;;;;11.48;53.19;100670.20;1663499;84;25882;-75
2022/05/11 01:36:31;;;;;;;9.90;5.15;;;;;;;11.47;53.30;100669.06;1665246;86;28292;-75
2022/05/11 01:39:03;;;;;;;10.05;5.87;;;;;;;11.46;53.23;100663.40;1670800;84;26403;-75
2022/05/11 01:41:41;;;;;;;9.90;5.05;;;;;;;11.46;53.39;100654.81;1680425;84;25736;-75
2022/05/11 01:44:15;;;;;;;7.83;5.15;;;;;;;11.46;53.40;100650.79;1681855;84;25910;-75
2022/05/11 01:46:48;;;;;;;17.67;6.72;;;;;;;11.46;53.40;100645.42;1681766;84;25964;-75
2022/05/11 01:49:15;;;;;;;16.48;6.28;;;;;;;11.46;53.38;100640.59;1679246;84;27613;-76
2022/05/11 01:51:42;;;;;;;16.75;6.60;;;;;;;11.48;53.56;100642.04;1683547;84;25834;-76
2022/05/11 01:54:09;;;;;;;15.05;6.33;;;;;;;11.51;53.49;100638.16;1683651;84;25762;-75
2022/05/11 01:56:35;;;;;;;14.73;6.28;;;;;;;11.53;53.29;100638.79;1680451;84;25762;-75
2022/05/11 01:59:03;;;;;;;15.25;6.40;;;;;;;11.55;53.23;100630.88;1680480;84;26156;-75
2022/05/11 02:01:32;;;;;;;14.83;6.58;;;;;;;11.57;53.37;100627.98;1678827;84;27715;-76
2022/05/11 02:04:00;;;;;;;12.53;5.62;;;;;;;11.59;53.34;100632.65;1645789;86;26036;-75
2022/05/11 02:09:13;;;;;;;11.63;5.78;;;;;;;11.62;53.22;100624.23;1678566;84;25862;-75
2022/05/11 02:11:39;;;;;;;11.08;5.22;;;;;;;11.63;53.25;100616.52;1687481;84;26420;-75
2022/05/11 02:14:06;;;;;;;8.48;5.60;;;;;;;11.63;53.41;100611.95;1687279;83;27436;-76
2022/05/11 02:16:32;;;;;;;10.20;5.47;;;;;;;11.62;53.62;100607.63;1680065;84;25818;-75
2022/05/11 02:18:59;;;;;;;10.53;4.85;;;;;;;11.62;53.42;100595.55;1682133;84;25845;-75
2022/05/11 02:21:25;;;;;;;9.18;5.12;;;;;;;11.64;53.46;100587.30;1681056;84;26003;-76
2022/05/11 02:23:52;;;;;;;10.18;5.60;;;;;;;11.64;53.63;100590.82;1682574;84;25755;-75
2022/05/11 02:26:19;;;;;;;13.15;5.40;;;;;;;11.65;53.45;100590.31;1681666;84;27542;-75
2022/05/11 02:28:50;;;;;;;13.35;5.75;;;;;;;11.68;53.41;100593.13;1680482;84;25904;-75
2022/05/11 02:31:17;;;;;;;;;;;;;;;11.68;53.55;100589.11;1685647;84;26532;-75
2022/05/11 02:33:43;;;;;;;12.45;5.92;;;;;;;11.70;53.79;100597.82;1686798;84;25835;-75
2022/05/11 02:36:09;;;;;;;11.50;5.62;;;;;;;11.68;53.50;100594.47;1677806;84;25893;-75
2022/05/11 02:38:35;;;;;;;12.80;5.85;;;;;;;11.68;53.74;100595.31;1689933;83;27536;-75
2022/05/11 02:41:04;;;;;;;17.55;7.00;;;;;;;11.69;53.65;100588.09;1674966;84;25817;-75
2022/05/11 02:43:30;;;;;;;8.40;5.65;;;;;;;11.68;53.96;100587.26;1678153;84;25824;-75
2022/05/11 02:45:56;;;;;;;13.20;6.22;;;;;;;11.65;54.37;100593.00;1685307;84;26614;-75
2022/05/11 02:48:25;;;;;;;18.80;6.35;;;;;;;11.61;54.48;100585.83;1681267;83;25877;-76
2022/05/11 02:50:55;;;;;;;11.60;6.10;;;;;;;11.58;54.66;100585.40;1681013;84;27469;-75
2022/05/11 02:53:25;;;;;;;9.18;5.53;;;;;;;11.53;54.68;100587.31;1692743;84;25761;-75
2022/05/11 02:55:53;;;;;;;12.25;5.25;;;;;;;11.48;54.89;100585.71;1679644;84;25762;-75
2022/05/11 02:58:28;;;;;;;9.08;6.30;;;;;;;11.45;55.13;100586.62;1702427;83;26084;-75
2022/05/11 03:00:58;;;;;;;16.10;6.90;;;;;;;11.40;55.04;100588.53;1679100;83;25929;-76
2022/05/11 03:03:33;;;;;;;13.32;6.25;;;;;;;11.37;55.08;100587.59;1679755;84;27699;-75
2022/05/11 03:05:54;;;;;;;19.07;7.65;;;;;;;11.36;55.38;100581.89;1683982;84;26193;-75
2022/05/11 03:08:20;;;;;;;18.50;7.78;;;;;;;11.33;55.20;100571.55;1677910;84;26498;-75
2022/05/11 03:10:48;;;;;;;18.48;7.97;;;;;;;11.34;55.40;100568.36;1683137;84;25830;-75
2022/05/11 03:13:14;;;;;;;19.23;7.87;;;;;;;11.35;55.23;100557.97;1683399;84;25730;-75
2022/05/11 03:15:41;;;;;;;18.52;8.48;;;;;;;11.36;55.28;100552.91;1666530;84;28264;-75
2022/05/11 03:18:07;;;;;;;15.13;7.58;;;;;;;11.38;55.35;100554.88;1681836;83;25835;-75
2022/05/11 03:20:34;;;;;;;11.40;6.55;;;;;;;11.39;55.24;100548.51;1682754;84;25808;-75
2022/05/11 03:23:01;;;;;;;12.75;6.45;;;;;;;11.42;55.36;100544.91;1680803;84;26009;-75
2022/05/11 03:25:27;;;;;;;13.43;5.83;;;;;;;11.45;55.29;100545.05;1687471;84;25769;-76
2022/05/11 03:27:53;;;;;;;11.97;6.10;;;;;;;11.48;55.24;100547.36;1689649;84;27465;-75
2022/05/11 03:30:21;;;;;;;11.80;6.92;;;;;;;11.51;55.32;100552.31;1685537;84;25892;-75
2022/05/11 03:35:32;;;;;;;12.30;7.20;;;;;;;11.55;55.69;100549.55;1683519;84;26424;-75
2022/05/11 03:37:58;;;;;;;15.30;7.80;;;;;;;11.57;55.70;100558.23;1688516;84;25821;-75
2022/05/11 03:40:24;;;;;;;12.13;6.50;;;;;;;11.58;55.90;100550.02;1689371;84;28351;-75
2022/05/11 03:42:50;;;;;;;9.53;5.53;;;;;;;11.61;55.88;100552.83;1687932;84;26555;-75
2022/05/11 03:45:21;;;;;;;13.88;5.72;;;;;;;11.62;55.75;100552.63;1688555;84;25632;-75
2022/05/11 03:47:48;;;;;;;10.95;5.62;;;;;;;11.64;55.76;100546.55;1687928;83;26401;-75
2022/05/11 03:50:19;;;;;;;12.50;5.83;;;;;;;11.68;55.75;100547.02;1689115;84;25797;-75
2022/05/11 03:52:46;;;;;;;11.10;5.97;;;;;;;11.71;55.92;100540.44;1693212;83;27960;-75
2022/05/11 03:55:12;;;;;;;10.93;6.55;;;;;;;11.75;56.06;100543.03;1674001;84;25841;-75
2022/05/11 03:57:39;;;;;;;12.43;6.55;;;;;;;11.81;56.20;100540.91;1686719;83;25948;-75
2022/05/11 04:00:12;;;;;;;9.50;5.92;;;;;;;11.84;56.13;100536.00;1669613;83;25861;-76
2022/05/11 04:02:40;;;;;;;8.50;5.87;;;;;;;11.88;56.22;100534.58;1668575;84;25909;-75
2022/05/11 04:05:07;;;;;;;12.47;5.67;;;;;;;11.93;56.13;100538.02;1668749;84;28287;-75
2022/05/11 04:07:34;;;;;;;8.05;5.12;;;;;;;11.96;56.01;100539.78;1669252;84;25313;-75
2022/05/11 04:10:00;;;;;;;10.90;5.12;;;;;;;12.00;55.81;100539.70;1671494;83;26026;-75
2022/05/11 04:12:29;;;;;;;7.92;4.78;;;;;;;12.07;55.74;100545.11;1668280;84;25859;-75
2022/05/11 04:14:55;;;;;;;8.43;4.78;;;;;;;12.11;55.79;100537.81;1668506;84;25768;-75
2022/05/11 04:17:22;;;;;;;12.18;4.80;;;;;;;12.16;55.71;100536.72;1668522;84;28407;-75
2022/05/11 04:19:48;;;;;;;12.05;4.95;;;;;;;12.21;55.81;100540.15;1668190;84;25902;-76
2022/05/11 04:22:14;;;;;;;7.35;4.65;;;;;;;12.25;55.68;100542.75;1668273;84;25819;-75
2022/05/11 04:24:41;;;;;;;10.03;4.72;;;;;;;12.30;55.68;100539.77;1675373;83;25862;-75
2022/05/11 04:27:07;;;;;;;12.00;5.15;;;;;;;12.34;55.75;100541.53;1670408;83;25952;-76
2022/05/11 04:29:36;;;;;;;9.85;4.50;;;;;;;12.38;55.82;100538.79;1670051;83;27451;-75
2022/05/11 04:32:03;;;;;;;13.53;5.65;;;;;;;12.42;55.91;100531.98;1669300;82;25845;-76
2022/05/11 04:34:29;;;;;;;8.00;5.25;;;;;;;12.47;55.90;100521.45;1668500;84;25834;-75
2022/05/11 04:36:56;;;;;;;12.43;5.28;;;;;;;12.51;55.99;100525.38;1670173;84;25822;-75
2022/05/11 04:39:22;;;;;;;9.58;4.72;;;;;;;12.58;56.37;100529.44;1672455;84;27054;-76
2022/05/11 04:41:48;;;;;;;10.63;5.60;;;;;;;12.61;56.64;100529.89;1673199;83;27441;-76
2022/05/11 04:44:14;;;;;;;8.58;4.70;;;;;;;12.66;56.79;100523.38;1673826;83;25850;-75
2022/05/11 04:46:40;;;;;;;9.88;4.55;;;;;;;12.72;56.90;100525.78;1673055;83;25925;-75
2022/05/11 04:49:27;;;;;;;10.10;5.97;;;;;;;12.76;56.81;100521.66;1675973;83;26506;-75
2022/05/11 04:52:00;;;;;;;12.30;5.60;;;;;;;12.81;56.90;100524.58;1661491;84;26438;-76
2022/05/11 04:54:26;;;;;;;14.87;6.42;;;;;;;12.86;57.11;100522.92;1671933;84;28321;-76
2022/05/11 04:56:53;;;;;;;9.38;5.75;;;;;;;12.92;57.05;100523.95;1661307;84;25624;-76
2022/05/11 04:59:19;;;;;;;11.43;5.37;;;;;;;12.97;56.94;100522.34;1678250;83;25962;-75
2022/05/11 05:01:46;;;;;;;18.52;5.80;;;;;;;13.02;57.12;100521.19;1669729;84;43796;-76
2022/05/11 05:04:12;;;;;;;12.75;5.87;;;;;;;13.07;57.03;100517.92;1681351;84;26047;-75
2022/05/11 05:06:39;;;;;;;10.53;5.60;;;;;;;13.13;57.06;100519.78;1677935;84;27422;-76
2022/05/11 05:09:06;;;;;;;9.75;5.45;;;;;;;13.17;57.12;100520.22;1686512;83;25735;-75
2022/05/11 05:11:33;;;;;;;10.80;5.83;;;;;;;13.23;57.18;100518.89;1679692;84;25892;-75
2022/05/11 05:14:04;;;;;;;7.97;5.12;;;;;;;13.31;57.13;100520.53;1684205;83;25813;-75
2022/05/11 05:16:29;;;;;;;10.85;5.90;;;;;;;13.39;57.12;100514.94;1699781;83;25785;-76
2022/05/11 05:18:56;;;;;;;14.47;7.53;;;;;;;13.48;57.01;100511.84;1669593;84;27451;-75
2022/05/11 05:21:22;;;;;;;10.32;6.40;;;;;;;13.56;56.63;100510.28;1681040;84;26481;-75
2022/05/11 05:23:49;;;;;;;10.10;5.87;;;;;;;13.65;56.67;100511.73;1683405;84;25775;-75
2022/05/11 05:26:15;;;;;;;13.40;5.92;;;;;;;13.77;56.45;100511.94;1680551;84;27240;-76
2022/05/11 05:31:29;;;;;;;10.90;5.62;;;;;;;14.00;56.41;100515.51;1691559;84;28336;-76
2022/05/11 05:33:59;;;;;;;15.48;5.42;;;;;;;14.13;56.01;100516.31;1676559;84;25802;-75
2022/05/11 05:36:24;;;;;;;10.78;5.17;;;;;;;14.24;55.86;100511.59;1690028;84;25523;-76
2022/05/11 05:38:50;;;;;;;12.75;4.92;;;;;;;14.36;55.70;100512.63;1674505;83;25905;-76
2022/05/11 05:41:16;;;;;;;15.50;5.62;;;;;;;14.47;55.69;100512.48;1678193;84;26628;-76
2022/05/11 05:43:43;;;;;;;12.05;4.83;;;;;;;14.56;55.72;100520.09;1672704;84;27454;-76
2022/05/11 05:46:09;;;;;;;9.63;6.15;;;;;;;14.64;55.49;100513.14;1673681;84;25735;-76
2022/05/11 05:48:36;;;;;;;9.20;5.22;;;;;;;14.75;55.28;100510.28;1689256;83;25881;-76
2022/05/11 05:51:08;;;;;;;9.83;5.12;;;;;;;14.86;55.39;100520.39;1675655;84;26029;-76
2022/05/11 05:53:35;;;;;;;9.23;5.15;;;;;;;14.98;55.69;100516.45;1688117;83;25994;-76
2022/05/11 05:56:02;;;;;;;12.53;5.45;;;;;;;15.12;55.27;100518.05;1692737;83;27483;-76
2022/05/11 05:58:28;;;;;;;16.15;5.53;;;;;;;15.25;55.13;100514.70;1665535;84;25775;-76
2022/05/11 06:00:55;;;;;;;14.03;5.58;;;;;;;15.37;54.91;100518.37;1679485;84;25789;-76
2022/05/11 06:03:24;;;;;;;13.48;5.22;;;;;;;15.50;54.70;100515.28;1680880;84;25893;-77
2022/05/11 06:05:51;;;;;;;11.25;4.95;;;;;;;15.63;54.84;100514.63;1682517;84;25735;-76
2022/05/11 06:08:18;;;;;;;8.78;4.78;;;;;;;15.76;55.21;100517.75;1692435;83;28254;-76
2022/05/11 06:10:45;;;;;;;8.15;5.22;;;;;;;15.86;54.90;100518.06;1681034;84;25830;-76
2022/05/11 06:13:17;;;;;;;10.80;5.08;;;;;;;15.95;54.78;100518.08;1692630;84;25588;-76
2022/05/11 06:15:44;;;;;;;9.43;4.55;;;;;;;16.04;54.14;100518.07;1680247;84;26570;-76
2022/05/11 06:18:11;;;;;;;9.45;4.78;;;;;;;16.15;54.39;100507.35;1685777;84;25783;-76
2022/05/11 06:20:38;;;;;;;9.88;5.17;;;;;;;16.29;54.45;100513.45;1683801;83;27511;-76
2022/05/11 06:23:06;;;;;;;14.98;6.22;;;;;;;16.43;54.72;100514.92;1692610;84;25789;-76
2022/05/11 06:25:37;;;;;;;11.73;5.40;;;;;;;16.58;54.04;100509.15;1693389;84;25751;-76
2022/05/11 06:28:06;;;;;;;10.45;5.12;;;;;;;16.72;53.97;100510.64;1695978;83;25826;-77
2022/05/11 06:30:34;;;;;;;9.15;5.17;;;;;;;16.86;54.15;100513.45;1687344;82;25288;-77
2022/05/11 06:33:01;;;;;;;12.37;5.55;;;;;;;17.00;53.82;100517.61;1684015;84;27471;-77
2022/05/11 06:35:29;;;;;;;10.10;4.60;;;;;;;17.12;53.74;100509.54;1697468;83;26100;-76
2022/05/11 06:37:57;;;;;;;11.00;5.40;;;;;;;17.24;53.44;100510.38;1637732;84;25802;-77
2022/05/11 06:40:23;;;;;;;8.93;5.30;;;;;;;17.38;53.40;100511.31;1676301;84;26001;-76
2022/05/11 06:42:49;;;;;;;10.03;5.45;;;;;;;17.53;53.64;100510.38;1689237;84;25919;-77
2022/05/11 06:45:16;;;;;;;13.53;5.33;;;;;;;17.70;53.16;100511.33;1679235;84;27434;-77
2022/05/11 06:47:42;;;;;;;10.03;4.75;;;;;;;17.87;52.82;100505.19;1678768;83;25366;-77
2022/05/11 06:50:11;;;;;;;11.60;5.15;;;;;;;18.06;53.14;100514.83;1683712;84;26405;-76
2022/05/11 06:52:37;;;;;;;11.80;5.40;;;;;;;18.22;52.49;100501.36;1679752;84;26600;-76
2022/05/11 07:00:35;;;;;;;9.75;6.05;;;;;;;18.69;52.06;100493.94;1689896;84;25893;-76
2022/05/11 07:03:04;;;;;;;12.03;5.87;;;;;;;18.81;51.44;100487.95;1684282;84;25856;-77
2022/05/11 07:05:32;;;;;;;8.05;5.35;;;;;;;18.91;52.26;100485.41;1678621;84;26259;-77
2022/05/11 07:07:59;;;;;;;9.95;5.55;;;;;;;18.99;51.75;100484.20;1681577;83;25952;-77
2022/05/11 07:10:26;;;;;;;13.93;5.40;;;;;;;19.08;51.86;100488.15;1679651;84;27454;-77
2022/05/11 07:12:52;;;;;;;11.88;5.35;;;;;;;19.15;51.41;100495.09;1681322;84;25919;-76
2022/05/11 07:15:22;;;;;;;6.92;4.97;;;;;;;19.20;51.64;100494.36;1681422;84;25313;-76
2022/05/11 07:17:55;;;;;;;9.18;5.08;;;;;;;19.26;51.24;100490.65;1697585;82;25765;-77
2022/05/11 07:20:33;;;;;;;13.58;5.08;;;;;;;19.32;51.22;100491.55;1671629;83;25838;-76
2022/05/11 07:22:57;;;;;;;9.83;5.90;;;;;;;19.41;51.10;100488.75;1692196;84;27468;-76
2022/05/11 07:25:25;;;;;;;12.47;5.40;;;;;;;19.48;51.32;100487.50;1682637;84;25766;-76
2022/05/11 07:27:53;;;;;;;10.78;5.03;;;;;;;19.56;51.11;100482.20;1684729;84;25812;-76
2022/05/11 07:30:24;;;;;;;9.05;5.47;;;;;;;19.62;51.41;100477.13;1665316;86;26397;-76
2022/05/11 07:32:50;;;;;;;8.23;5.10;;;;;;;19.67;50.91;100475.86;1652130;86;25935;-76
2022/05/11 07:35:17;;;;;;;9.83;5.42;;;;;;;19.75;51.38;100465.38;1691694;84;27619;-76
2022/05/11 07:37:47;;;;;;;9.65;5.28;;;;;;;19.89;51.08;100465.30;1676559;84;25809;-76
2022/05/11 07:40:12;;;;;;;11.20;4.83;;;;;;;20.05;50.64;100458.71;1664493;86;25821;-76
2022/05/11 07:42:38;;;;;;;11.50;5.65;;;;;;;20.14;51.38;100462.12;1686749;84;26650;-76
2022/05/11 07:45:06;;;;;;;8.85;5.72;;;;;;;20.28;50.80;100468.02;1664890;86;25919;-76
2022/05/11 07:47:33;;;;;;;12.70;4.95;;;;;;;20.39;51.33;100468.43;1660700;86;28339;-76
2022/05/11 07:49:59;;;;;;;12.65;5.33;;;;;;;20.48;50.43;100462.83;1656038;86;25764;-76
2022/05/11 07:52:25;;;;;;;11.10;5.55;;;;;;;20.54;51.09;100467.25;1664101;86;25817;-76
2022/05/11 07:54:52;;;;;;;9.18;5.15;;;;;;;20.59;50.62;100463.23;1652353;86;25836;-76
2022/05/11 08:00:07;;;;;;;8.95;5.03;;;;;;;20.70;50.48;100459.52;1675188;84;28338;-75
2022/05/11 08:02:35;;;;;;;;;;;;;;;20.77;50.91;100456.06;1690734;84;26150;-76
2022/05/11 08:05:07;;;;;;;7.30;5.03;;;;;;;20.81;50.19;100459.11;1686475;84;25669;-76
2022/05/11 08:07:46;;;;;;;6.30;4.95;;;;;;;20.85;50.63;100453.43;1680437;84;26532;-76
2022/05/11 08:10:18;;;;;;;17.27;6.03;;;;;;;20.91;50.79;100450.50;1681109;84;25797;-76
2022/05/11 08:12:44;;;;;;;7.90;5.37;;;;;;;20.93;50.08;100451.06;1681988;84;28419;-76
2022/05/11 08:15:13;;;;;;;10.60;5.20;;;;;;;20.96;50.32;100453.25;1682762;84;25912;-76
2022/05/11 08:17:42;;;;;;;10.23;5.20;;;;;;;20.99;49.89;100449.20;1692776;84;25840;-76
2022/05/11 08:20:14;;;;;;;7.25;5.10;;;;;;;20.99;49.21;100451.92;1682037;84;26703;-76
2022/05/11 08:22:45;;;;;;;10.23;5.22;;;;;;;21.04;49.79;100456.09;1664397;85;25942;-76
2022/05/11 08:25:15;;;;;;;8.85;5.12;;;;;;;21.13;50.16;100462.16;1647894;86;27476;-76
2022/05/11 08:27:42;;;;;;;8.87;4.60;;;;;;;21.24;50.56;100465.25;1681034;84;26561;-76
2022/05/11 08:35:43;;;;;;;9.40;5.22;;;;;;;21.59;50.64;100473.43;1692965;84;25997;-77
2022/05/11 08:38:11;;;;;;;10.85;5.40;;;;;;;21.74;50.91;100466.72;1683342;84;27425;-77
2022/05/11 08:40:43;;;;;;;10.75;5.20;;;;;;;21.79;49.60;100459.38;1675763;84;25765;-77
2022/05/11 08:43:14;;;;;;;8.80;5.30;;;;;;;21.81;49.53;100455.84;1662093;84;25760;-77
2022/05/11 08:45:46;;;;;;;12.25;5.58;;;;;;;21.85;49.92;100452.10;1682270;84;25781;-77
2022/05/11 08:48:30;;;;;;;11.45;5.92;;;;;;;21.87;49.80;100449.92;1680797;84;25921;-76
2022/05/11 08:50:56;;;;;;;12.82;5.90;;;;;;;21.86;49.55;100460.55;1684231;84;27469;-77
2022/05/11 08:53:31;;;;;;;10.48;5.92;;;;;;;21.87;50.04;100456.75;1682152;84;25962;-77
2022/05/11 08:56:00;;;;;;;8.58;5.40;;;;;;;21.91;50.10;100460.05;1698859;83;25795;-77
2022/05/11 08:58:49;;;;;;;9.18;5.42;;;;;;;21.94;49.24;100460.06;1714760;82;25804;-77
2022/05/11 09:01:36;;;;;;;15.90;5.83;;;;;;;21.99;49.64;100462.80;1663989;84;26573;-77
2022/05/11 09:04:07;;;;;;;9.90;5.37;;;;;;;21.99;48.27;100463.63;1691857;84;28013;-77
2022/05/11 09:06:34;;;;;;;11.20;5.85;;;;;;;21.99;48.79;100450.53;1676092;84;25818;-77
2022/05/11 09:09:03;;;;;;;10.00;5.85;;;;;;;22.02;48.99;100454.11;1671002;84;25505;-77
2022/05/11 09:11:45;;;;;;;11.43;5.83;;;;;;;22.04;48.53;100453.30;1679816;84;26577;-78
2022/05/11 09:14:17;;;;;;;13.38;6.15;;;;;;;22.08;48.25;100450.31;1678549;84;25789;-76
2022/05/11 09:16:47;;;;;;;11.22;5.87;;;;;;;22.12;49.15;100454.97;1678922;84;27542;-77
2022/05/11 09:19:21;;;;;;;9.77;5.77;;;;;;;22.25;49.10;100449.57;1668582;84;26026;-77
2022/05/11 09:21:53;;;;;;;8.75;5.65;;;;;;;22.38;49.87;100444.16;1668294;84;26125;-78
2022/05/11 09:24:40;;;;;;;12.53;5.35;;;;;;;22.51;49.02;100445.84;1695172;83;26729;31
2022/05/11 09:27:31;;;;;;;8.58;5.67;;;;;;;22.64;49.50;100440.45;1674643;85;25303;-77
2022/05/11 09:30:21;;;;;;;9.00;5.83;;;;;;;22.77;48.49;100438.56;1667255;85;28296;-78
2022/05/11 09:32:48;;;;;;;8.30;5.35;;;;;;;22.82;48.17;100435.28;1667612;85;26521;-76
2022/05/11 09:35:26;;;;;;;12.40;6.05;;;;;;;22.87;49.29;100436.67;1667163;85;26446;-77
2022/05/11 09:38:07;;;;;;;10.18;5.12;;;;;;;22.96;49.51;100434.22;1665898;85;26044;-77
2022/05/11 09:40:48;;;;;;;;;;;;;;;23.07;49.09;100434.51;1672999;85;25921;-77
2022/05/11 09:43:41;;;;;;;9.45;5.87;;;;;;;23.22;49.06;100436.42;1633000;85;27595;-77
2022/05/11 09:46:33;;;;;;;12.82;5.30;;;;;;;23.30;48.85;100424.39;1629168;87;25968;-77
2022/05/11 09:49:19;;;;;;;10.90;5.30;;;;;;;23.43;49.24;100425.23;1645949;85;25871;-77
2022/05/11 09:51:51;;;;;;;9.98;4.87;;;;;;;23.55;48.87;100416.19;1645876;85;25902;-77
2022/05/11 09:54:43;;;;;;;9.30;4.35;;;;;;;23.66;47.72;100416.44;1667750;85;25755;-76
2022/05/11 09:57:14;;;;;;;10.32;4.75;;;;;;;23.74;47.17;100413.13;1660454;85;27476;-77
2022/05/11 09:59:46;;;;;;;9.33;5.00;;;;;;;23.87;47.46;100416.36;1662427;85;25856;-77
2022/05/11 10:02:34;;;;;;;9.83;5.37;;;;;;;23.97;47.67;100409.52;1672385;85;25311;-77
2022/05/11 10:05:24;;;;;;;14.30;5.20;;;;;;;24.08;47.31;100405.67;1635287;87;26669;-77
2022/05/11 10:08:04;;;;;;;7.70;4.83;;;;;;;24.16;46.27;100404.55;1648931;85;25810;-77
2022/05/11 10:10:51;;;;;;;;;;;;;;;24.20;46.34;100401.52;1673743;85;28212;-77
2022/05/11 10:13:38;;;;;;;10.00;4.55;;;;;;;24.24;45.27;100397.66;1681873;85;26392;-77
2022/05/11 10:22:27;;;;;;;6.70;4.85;;;;;;;24.51;46.88;100383.80;1674006;85;26250;-78
2022/05/11 10:25:17;;;;;;;8.45;4.80;;;;;;;24.65;46.21;100384.55;1667753;85;27482;-77
2022/05/11 10:27:54;;;;;;;5.12;4.40;;;;;;;24.75;46.05;100381.22;1670333;84;26013;-77
2022/05/11 10:30:32;;;;;;;8.90;4.35;;;;;;;24.86;46.12;100378.67;1660483;84;25938;-77
2022/05/11 10:33:28;;;;;;;7.55;4.62;;;;;;;24.95;45.32;100377.50;1653167;85;25783;-77
2022/05/11 10:36:22;;;;;;;13.75;5.22;;;;;;;25.07;45.63;100382.05;1550492;90;25959;-77
2022/05/11 10:39:24;;;;;;;7.28;4.85;;;;;;;25.18;45.78;100378.95;1603563;87;27500;-77
2022/05/11 10:42:22;;;;;;;7.78;4.58;;;;;;;25.21;44.05;100371.50;1647824;85;25838;-77
2022/05/11 10:45:14;;;;;;;6.80;4.70;;;;;;;25.19;44.95;100375.08;1670515;85;26410;-77
2022/05/11 10:48:10;;;;;;;9.48;4.90;;;;;;;25.21;44.53;100376.19;1682407;85;26267;-77
2022/05/11 10:50:51;;;;;;;11.00;4.50;;;;;;;25.22;44.32;100374.52;1671258;84;26475;-77
2022/05/11 10:53:40;;;;;;;;;;;;;;;25.22;43.98;100373.15;1657431;85;27469;-77
2022/05/11 10:56:35;;;;;;;8.95;4.65;;;;;;;25.24;43.42;100367.37;1666609;85;25898;-77
2022/05/11 10:59:31;;;;;;;8.55;4.95;;;;;;;25.26;43.55;100370.64;1674321;85;25818;-77
2022/05/11 11:02:13;;;;;;;6.33;4.25;;;;;;;25.31;43.57;100368.41;1674937;85;25851;-77
2022/05/11 11:04:56;;;;;;;7.80;4.20;;;;;;;25.39;43.71;100358.99;1666841;85;26291;-77
2022/05/11 11:07:57;;;;;;;5.03;4.50;;;;;;;25.49;43.13;100357.53;1666498;85;27535;-77
2022/05/11 11:10:51;;;;;;;8.53;4.40;;;;;;;25.57;42.11;100358.84;1670951;85;25765;-77
2022/05/11 11:13:45;;;;;;;9.30;4.33;;;;;;;25.64;43.06;100356.58;1670633;85;25743;-77
2022/05/11 11:16:13;;;;;;;9.03;4.50;;;;;;;25.74;42.78;100343.55;1681886;85;26602;-77
2022/05/11 11:18:44;;;;;;;5.80;4.08;;;;;;;25.89;42.51;100343.38;1667542;85;26075;-77
2022/05/11 11:21:12;;;;;;;7.12;3.67;;;;;;;26.01;42.67;100340.19;1676105;85;28300;-77
2022/05/11 11:23:43;;;;;;;7.03;4.10;;;;;;;26.09;41.67;100339.55;1670562;85;25822;-77
2022/05/11 11:26:12;;;;;;;5.58;3.65;;;;;;;26.12;40.39;100334.86;1668695;84;32606;-77
2022/05/11 11:28:56;;;;;;;7.05;3.62;;;;;;;26.10;40.38;100335.70;1677989;85;26644;-77
2022/05/11 11:31:28;;;;;;;8.80;4.08;;;;;;;26.11;40.92;100335.16;1664540;85;26507;-77
2022/05/11 11:34:08;;;;;;;8.88;4.50;;;;;;;26.10;40.71;100334.88;1666449;85;27636;-77
2022/05/11 11:36:42;;;;;;;5.40;3.90;;;;;;;26.12;40.47;100334.86;1667941;85;25959;-77
2022/05/11 11:39:14;;;;;;;8.85;4.08;;;;;;;26.10;39.78;100324.73;1673219;85;25817;-77
2022/05/11 11:41:48;;;;;;;8.78;4.30;;;;;;;26.11;40.00;100324.18;1649978;85;25916;-76
2022/05/11 11:44:32;;;;;;;4.08;3.70;;;;;;;26.13;39.68;100328.27;1674182;84;25920;-77
2022/05/11 11:46:59;;;;;;;6.40;4.40;;;;;;;26.14;39.27;100327.14;1655030;85;26916;-76
2022/05/11 11:49:34;;;;;;;6.87;4.33;;;;;;;26.16;40.40;100326.28;1675843;85;25768;-77
2022/05/11 11:52:05;;;;;;;9.40;4.05;;;;;;;26.21;40.57;100325.41;1666262;85;25838;-77
2022/05/11 11:54:43;;;;;;;7.78;4.30;;;;;;;26.18;39.60;100321.86;1666554;85;26590;-77
2022/05/11 11:57:26;;;;;;;11.53;4.33;;;;;;;26.14;40.13;100322.20;1673155;85;26657;-77
2022/05/11 12:00:00;;;;;;;6.90;3.98;;;;;;;26.17;40.64;100318.87;1671690;85;28769;-77
2022/05/11 12:02:39;;;;;;;8.28;4.25;;;;;;;26.23;40.74;100314.39;1678736;85;26482;-77
2022/05/11 12:05:37;;;;;;;6.28;4.55;;;;;;;26.29;40.20;100308.25;1666707;85;25528;-77
2022/05/11 12:16:53;;;;;;;4.40;4.00;;;;;;;26.38;38.54;100302.35;1661542;85;26020;-77
2022/05/11 12:19:24;;;;;;;7.95;3.98;;;;;;;26.38;38.39;100297.69;1671054;85;25714;-77